In Rescue
 
Open Full Screen Window  High Contrast Mode
Wind Gusting 00 knots
14
January 20, 2021 4:07 PM CST
Weather Information
Wind Direction
  260 °
Wind Speed
  14 kt (16 mph)
Wind Gust
  00 kt (0 mph)
Altimeter
29.60 in
Visibility
10 SM
Temperature
03° C
37° F
Dewpoint
-01° C
30° F
Humidity
75%
1hr Rain Fall
00.00 in.
24hr Rain Fall
00.00 in.
Sky Condition
Clear
VFR

METAR KHCD 202207Z AUTO 26014KT 10SM CLR 03/M01 A2960 RMK AO2 T00271010

FAA Disclaimer: The data displayed is for advisory purposes only and is not to be used for flight planning or operations.